Aérodrome :
LOGIN :

S'inscrire | Disclaimer

   EN    FR    IT 

 










Légende :    VFR   VFR Marginal   IFR   IFR Intensif   IFR Très Intensif
Visi : 
Plafond : 
>= 8 km
>= 3000ft
5 à 8 km
1000 à 3000 ft
1500m à 5 km
500 à 1000 ft
800 à 1500m
200 à 500 ft
< 800m
< 200 ft
Symboles :   Orages  Brouillard  Fortes neiges  Fortes précipitations  Vent > 20 kt
SIGMETs :   Divers  Orages  Givrage  Turbulence  Onde Orograph.  Cendres Volcan.







- Altitude de l'aérodrome : 123 ft
- Code IATA : BLQ


LIPE - Bologna Guglielmo Marconi

DERNIER METAR :
  • 220350Z 27006KT 5000 -RA BR FEW005 BKN040 15/15 Q1012 RERA

METARs EXPIRÉS :
  • 220320Z 25006KT 5000 RA BR FEW005 BKN035 15/15 Q1012
  • 220250Z 27006KT 4000 RA BR BKN035 BKN050 16/15 Q1012
  • 220220Z 26005KT 4000 +RA BKN035 BKN050 16/15 Q1012
  • 220150Z 31004KT 6000 RA SCT035 BKN050 16/15 Q1012
  • 220120Z 29004KT 250V320 7000 -RA SCT035 BKN050 16/15 Q1012 RERA

TAF TAF LIPE
Valide du 22 à 00h jusqu'au 23 à 00h UTC


212300Z 2200/2224 VRB06KT 9999 SCT035
TEMPO 2200/2208 RA
TEMPO 2212/2218 3000 TSRA
Pas de NOTAMs connus pour ce terrain.
1 SIGMET publié pour la FIR Milano (LIMM) :
 
Orages noyés dans la masse
LIMM SIGMET 1 VALID 220337/220537 LIIP
LIMM MILANO FIR EMBD TS FCST WI N4434 E00650 - N4335 E00758 - N4419 E01331 - N4513 E01259 - N4613 E01328 - N4532 E00705 - N4434 E00650 TOP FL330 MOV N NC=



MET'MAP, la Météo Aéronautique d'un coup d'oeil ! - Copyright ORBIFLY Décembre 2007 - Disclaimer

ORBIFLY MET'MAP TEAM :

Programmation & Développement : Alexandra Zaïnal
Conception & Développement : Baudouin d'Aumeries
Co-Programmation & Développement : Marc-Olivier Méhu
Soutien technique & logistique : Manuel Goepfert

Contact : metmap@orbifly.com




SOURCES & CREDITS :

   NOAA